Time;durP1;ratioP1;P1;durP2;ratioP2;P2;SDS_P1;SDS_P2;PMS_P1;PMS_P2;Temp;Humidity;BMP_temperature;BMP_pressure;BME280_temperature;BME280_humidity;BME280_pressure;Samples;Min_cycle;Max_cycle;Signal;HPM_P1;HPM_P2
2022/05/27 00:02:25;;;;;;;2.33;2.13;;;18.30;66.40;;;;;;5010806;28;20836;-45
2022/05/27 00:04:52;;;;;;;2.83;2.43;;;18.30;66.40;;;;;;5011601;28;20448;-45
2022/05/27 00:07:19;;;;;;;3.00;2.10;;;18.20;66.60;;;;;;5011370;28;20946;-45
2022/05/27 00:09:46;;;;;;;2.43;1.90;;;18.20;66.90;;;;;;4992827;28;20498;-45
2022/05/27 00:12:13;;;;;;;2.53;2.03;;;18.20;66.70;;;;;;5012178;28;20444;-45
2022/05/27 00:14:40;;;;;;;3.00;1.77;;;18.10;66.90;;;;;;5011842;28;20450;-45
2022/05/27 00:17:06;;;;;;;3.50;2.10;;;18.10;67.20;;;;;;5013838;28;20443;-45
2022/05/27 00:19:34;;;;;;;3.10;2.00;;;18.10;67.30;;;;;;4992968;28;20526;-45
2022/05/27 00:22:00;;;;;;;3.67;1.97;;;18.10;67.30;;;;;;5011620;28;20979;-45
2022/05/27 00:24:27;;;;;;;3.00;1.73;;;18.00;67.30;;;;;;5010463;28;20456;-45
2022/05/27 00:26:54;;;;;;;2.07;1.60;;;18.00;67.30;;;;;;5006433;28;20488;-45
2022/05/27 00:29:20;;;;;;;4.73;2.37;;;18.00;67.50;;;;;;5010622;28;20492;-45
2022/05/27 00:31:57;;;;;;;4.40;1.97;;;18.00;67.70;;;;;;5011237;28;20816;-44
2022/05/27 00:34:23;;;;;;;4.60;2.10;;;17.90;67.80;;;;;;5011753;28;20443;-45
2022/05/27 00:36:50;;;;;;;4.60;2.20;;;17.90;67.60;;;;;;4991839;28;20457;-45
2022/05/27 00:39:17;;;;;;;1.80;1.70;;;17.90;67.60;;;;;;5011438;28;20441;-45
2022/05/27 00:41:44;;;;;;;3.53;2.20;;;17.90;67.80;;;;;;5013744;28;20453;-45
2022/05/27 00:44:11;;;;;;;2.30;2.10;;;17.90;67.90;;;;;;5013700;28;20465;-45
2022/05/27 00:46:42;;;;;;;4.80;2.23;;;17.90;67.90;;;;;;4992234;28;20448;-45
2022/05/27 00:49:13;;;;;;;4.20;2.43;;;17.80;68.00;;;;;;5011032;28;20923;-45
2022/05/27 00:51:49;;;;;;;4.20;2.20;;;17.80;68.30;;;;;;5010154;28;20480;-45
2022/05/27 00:54:25;;;;;;;4.63;2.17;;;17.80;68.30;;;;;;5010539;28;20460;-45
2022/05/27 00:56:57;;;;;;;3.10;2.00;;;17.80;68.30;;;;;;5010533;28;20914;-44
2022/05/27 00:59:50;;;;;;;3.77;2.10;;;17.70;68.60;;;;;;4998399;28;20921;-44
2022/05/27 01:02:18;;;;;;;2.90;2.00;;;17.80;68.50;;;;;;5009567;28;20539;-44
2022/05/27 01:04:46;;;;;;;3.23;1.80;;;17.80;68.50;;;;;;4992438;28;20535;-44
2022/05/27 01:07:13;;;;;;;2.00;1.80;;;17.70;68.60;;;;;;5009226;28;20464;-45
2022/05/27 01:09:45;;;;;;;2.30;2.10;;;17.70;68.70;;;;;;4991391;28;20484;-44
2022/05/27 01:12:40;;;;;;;2.13;1.70;;;17.70;68.70;;;;;;4990695;28;20863;-44
2022/05/27 01:15:25;;;;;;;5.93;2.10;;;17.70;68.90;;;;;;5006225;28;20464;-44
2022/05/27 01:18:02;;;;;;;3.70;2.40;;;17.70;68.80;;;;;;5010548;28;20553;-45
2022/05/27 01:20:42;;;;;;;3.00;2.23;;;17.70;69.00;;;;;;5005919;28;20538;-45
2022/05/27 01:23:42;;;;;;;4.20;2.00;;;17.70;69.10;;;;;;5009404;28;20833;-45
2022/05/27 01:26:28;;;;;;;4.40;2.33;;;17.70;69.00;;;;;;5010143;28;20559;-45
2022/05/27 01:29:18;;;;;;;3.33;2.30;;;17.70;69.00;;;;;;5011502;28;20506;-45
2022/05/27 01:32:14;;;;;;;2.70;2.10;;;17.60;69.20;;;;;;5008008;28;20542;-45
2022/05/27 01:34:52;;;;;;;4.37;2.17;;;17.60;69.30;;;;;;4989724;28;20479;-45
2022/05/27 01:37:34;;;;;;;2.13;1.93;;;17.60;69.30;;;;;;4991961;28;20479;-44
2022/05/27 01:40:21;;;;;;;3.63;1.73;;;17.60;69.40;;;;;;5012687;28;21044;-44
2022/05/27 01:42:59;;;;;;;2.70;2.43;;;17.60;69.30;;;;;;5015756;28;20454;-44
2022/05/27 01:45:36;;;;;;;3.73;2.50;;;17.60;69.20;;;;;;5014832;28;20542;-45
2022/05/27 01:48:09;;;;;;;3.03;2.17;;;17.60;69.20;;;;;;5014333;28;20455;-44
2022/05/27 01:50:53;;;;;;;3.90;2.07;;;17.60;69.40;;;;;;5014431;28;20454;-44
2022/05/27 01:53:34;;;;;;;3.20;1.83;;;17.60;69.60;;;;;;5013289;28;20583;-44
2022/05/27 01:56:51;;;;;;;3.20;2.27;;;17.50;69.70;;;;;;5007321;28;20457;-45
2022/05/27 01:59:25;;;;;;;4.97;3.00;;;17.60;69.50;;;;;;4987711;28;20448;-44
2022/05/27 02:02:03;;;;;;;2.63;2.43;;;17.50;69.50;;;;;;5014704;28;20470;-44
2022/05/27 02:04:57;;;;;;;5.07;3.17;;;17.60;69.70;;;;;;5013253;28;20451;-44
2022/05/27 02:07:49;;;;;;;3.13;2.27;;;17.60;69.40;;;;;;5003791;28;20959;-44
2022/05/27 02:10:43;;;;;;;5.27;2.67;;;17.60;69.30;;;;;;5011699;28;20484;-44
2022/05/27 02:13:20;;;;;;;4.23;3.03;;;17.60;69.30;;;;;;5014096;28;20539;-44
2022/05/27 02:15:50;;;;;;;5.67;2.67;;;17.60;69.40;;;;;;5009435;28;20515;-45
2022/05/27 02:18:26;;;;;;;3.87;2.70;;;17.60;69.50;;;;;;5012169;28;20532;-45
2022/05/27 02:21:08;;;;;;;3.33;2.83;;;17.60;69.40;;;;;;4994323;28;20918;-45
2022/05/27 02:23:48;;;;;;;5.00;3.00;;;17.60;69.40;;;;;;5013192;28;20456;-44
2022/05/27 02:26:19;;;;;;;3.63;2.50;;;17.50;69.50;;;;;;5013334;28;20463;-44
2022/05/27 02:28:52;;;;;;;3.27;2.60;;;17.50;69.70;;;;;;5010409;28;20489;-44
2022/05/27 02:31:25;;;;;;;4.37;3.23;;;17.50;69.80;;;;;;5014140;28;20465;-45
2022/05/27 02:36:50;;;;;;;6.90;2.80;;;17.50;69.70;;;;;;5013434;28;20448;-45
2022/05/27 02:39:17;;;;;;;3.40;2.60;;;17.50;69.50;;;;;;4992829;28;20579;-45
2022/05/27 02:42:05;;;;;;;5.23;3.00;;;17.50;69.70;;;;;;5012823;28;20454;-45
2022/05/27 02:44:35;;;;;;;2.83;2.63;;;17.40;69.80;;;;;;4994638;28;20449;-45
2022/05/27 02:47:34;;;;;;;4.17;2.50;;;17.40;69.80;;;;;;4994263;28;20468;-45
2022/05/27 02:50:27;;;;;;;6.07;3.07;;;17.40;69.80;;;;;;4952835;28;20919;-45
2022/05/27 02:53:06;;;;;;;7.20;3.70;;;17.40;69.80;;;;;;5011257;28;20953;-45
2022/05/27 02:55:42;;;;;;;5.97;2.77;;;17.40;69.90;;;;;;5013112;28;20467;-45
2022/05/27 02:58:09;;;;;;;3.60;3.03;;;17.40;69.90;;;;;;5011504;28;20454;-45
2022/05/27 03:00:39;;;;;;;3.03;2.73;;;17.30;70.00;;;;;;5014278;28;20460;-46
2022/05/27 03:03:05;;;;;;;2.43;2.20;;;17.30;70.10;;;;;;5011634;28;21001;-45
2022/05/27 03:06:11;;;;;;;3.17;2.87;;;17.30;70.10;;;;;;5011441;28;20533;-44
2022/05/27 03:09:16;;;;;;;3.30;2.70;;;17.30;70.20;;;;;;4975847;28;20497;-45
2022/05/27 03:12:05;;;;;;;6.97;2.80;;;17.30;70.20;;;;;;4970920;28;20444;-44
2022/05/27 03:14:57;;;;;;;2.87;2.60;;;17.30;70.40;;;;;;5011145;28;20445;-44
2022/05/27 03:17:57;;;;;;;4.40;3.10;;;17.30;70.40;;;;;;5010698;28;20487;-45
2022/05/27 03:20:47;;;;;;;4.13;3.77;;;17.30;70.40;;;;;;4997497;28;20559;-44
2022/05/27 03:23:39;;;;;;;2.83;2.40;;;17.20;70.60;;;;;;5010276;28;20973;-45
2022/05/27 03:26:45;;;;;;;5.20;2.90;;;17.20;70.60;;;;;;4991777;28;20449;-44
2022/05/27 03:29:29;;;;;;;4.03;2.27;;;17.30;70.50;;;;;;4968028;28;20567;-45
2022/05/27 03:31:59;;;;;;;4.40;3.50;;;17.20;70.50;;;;;;5011779;28;20460;-45
2022/05/27 03:34:39;;;;;;;3.10;2.80;;;17.20;70.60;;;;;;5011135;28;20464;-44
2022/05/27 03:37:10;;;;;;;3.13;2.63;;;17.20;70.80;;;;;;4991151;28;20470;-45
2022/05/27 03:39:42;;;;;;;5.87;3.07;;;17.20;70.80;;;;;;5010003;28;20449;-46
2022/05/27 03:42:10;;;;;;;7.87;3.70;;;17.10;70.90;;;;;;5010867;28;20456;-46
2022/05/27 03:44:37;;;;;;;5.57;2.80;;;17.10;71.00;;;;;;5010226;28;20620;-46
2022/05/27 03:47:04;;;;;;;4.17;2.90;;;17.10;71.00;;;;;;4976865;28;20527;-46
2022/05/27 03:49:31;;;;;;;4.33;2.90;;;17.10;71.10;;;;;;5009762;28;20495;-47
2022/05/27 03:52:06;;;;;;;3.60;3.30;;;17.10;71.10;;;;;;4990846;28;20456;-45
2022/05/27 03:54:34;;;;;;;3.20;2.90;;;17.10;71.20;;;;;;4991268;28;20455;-44
2022/05/27 03:57:01;;;;;;;2.70;2.40;;;17.10;71.30;;;;;;5008846;28;20448;-45
2022/05/27 03:59:27;;;;;;;2.27;2.00;;;17.00;71.30;;;;;;5011020;28;20452;-45
2022/05/27 04:01:56;;;;;;;5.37;2.60;;;17.00;71.30;;;;;;5010258;28;20456;-45
2022/05/27 04:04:26;;;;;;;2.73;2.50;;;17.10;71.20;;;;;;5009426;28;20498;-45
2022/05/27 04:06:53;;;;;;;3.93;3.10;;;17.00;71.20;;;;;;4990665;28;20530;-45
2022/05/27 04:09:22;;;;;;;4.13;2.20;;;17.00;71.30;;;;;;5009212;28;20495;-45
2022/05/27 04:11:49;;;;;;;6.27;3.70;;;17.10;71.30;;;;;;5008639;28;20447;-45
2022/05/27 04:14:16;;;;;;;3.50;3.20;;;17.10;71.20;;;;;;5010223;28;20456;-44
2022/05/27 04:16:43;;;;;;;4.50;2.50;;;17.10;71.30;;;;;;5010953;28;20440;-45
2022/05/27 04:19:10;;;;;;;6.73;2.80;;;17.10;71.40;;;;;;4992205;28;20452;-45
2022/05/27 04:21:38;;;;;;;3.60;3.00;;;17.10;71.40;;;;;;5011365;28;20971;-45
2022/05/27 04:24:05;;;;;;;2.60;2.37;;;17.10;71.60;;;;;;4994177;28;20825;-45
2022/05/27 04:26:33;;;;;;;5.63;2.70;;;17.10;71.70;;;;;;5009510;28;20449;-45
2022/05/27 04:29:00;;;;;;;4.17;3.40;;;17.10;71.60;;;;;;5010316;28;20492;-45
2022/05/27 04:31:26;;;;;;;2.87;2.60;;;17.10;71.50;;;;;;5008106;28;20523;-45
2022/05/27 04:33:54;;;;;;;2.87;2.60;;;17.10;71.30;;;;;;5010677;28;20942;-46
2022/05/27 04:36:21;;;;;;;2.67;2.07;;;17.10;71.20;;;;;;5009827;28;20466;-45
2022/05/27 04:38:49;;;;;;;3.70;2.87;;;17.20;71.00;;;;;;4990851;28;20455;-45
2022/05/27 04:41:16;;;;;;;2.00;1.80;;;17.10;71.00;;;;;;5007808;28;20453;-45
2022/05/27 04:43:42;;;;;;;4.10;3.17;;;17.20;71.00;;;;;;5020830;28;20453;-45
2022/05/27 04:46:09;;;;;;;4.57;2.17;;;17.20;71.00;;;;;;4991858;28;20536;-45
2022/05/27 04:48:36;;;;;;;2.07;1.97;;;17.10;71.10;;;;;;5009545;28;20448;-45
2022/05/27 04:51:03;;;;;;;2.83;2.53;;;17.20;71.20;;;;;;4988574;28;20862;-45
2022/05/27 04:53:30;;;;;;;2.20;2.10;;;17.20;71.00;;;;;;5005289;28;20488;-45
2022/05/27 04:55:56;;;;;;;2.90;1.97;;;17.20;70.90;;;;;;5011555;28;20447;-45
2022/05/27 04:58:23;;;;;;;4.13;2.10;;;17.20;70.90;;;;;;5011505;28;21024;-45
2022/05/27 05:00:50;;;;;;;2.50;1.83;;;17.20;71.00;;;;;;5014047;28;20552;-45
2022/05/27 05:03:17;;;;;;;3.57;1.77;;;17.30;70.80;;;;;;5008047;28;20452;-45
2022/05/27 05:05:53;;;;;;;2.80;1.73;;;17.30;70.90;;;;;;4992788;28;20475;-46
2022/05/27 05:08:34;;;;;;;3.40;1.90;;;17.40;70.50;;;;;;4995019;28;20443;-45
2022/05/27 05:11:02;;;;;;;1.87;1.73;;;17.40;70.10;;;;;;5009806;28;20496;-45
2022/05/27 05:13:33;;;;;;;2.80;2.07;;;17.50;70.20;;;;;;5007398;28;20525;-45
2022/05/27 05:16:00;;;;;;;2.13;1.30;;;17.50;70.10;;;;;;5013028;28;20897;-46
2022/05/27 05:18:27;;;;;;;1.63;1.50;;;17.50;70.30;;;;;;4995546;28;20460;-45
2022/05/27 05:20:56;;;;;;;3.90;1.43;;;17.50;70.50;;;;;;5012706;28;20491;-45
2022/05/27 05:23:22;;;;;;;2.20;2.00;;;17.50;70.50;;;;;;5012915;28;21101;-45
2022/05/27 05:25:49;;;;;;;2.47;1.50;;;17.50;70.40;;;;;;5011984;28;20454;-45
2022/05/27 05:28:16;;;;;;;4.03;2.33;;;17.50;70.30;;;;;;5011567;28;20460;-45
2022/05/27 05:30:43;;;;;;;1.77;1.67;;;17.50;70.40;;;;;;5013883;28;20504;-45
2022/05/27 05:33:09;;;;;;;6.60;2.30;;;17.50;70.70;;;;;;5012412;28;20460;-45
2022/05/27 05:35:36;;;;;;;6.17;2.80;;;17.50;70.80;;;;;;5012338;28;20448;-44
2022/05/27 05:38:04;;;;;;;3.60;1.83;;;17.60;70.60;;;;;;5016976;28;20444;-45
2022/05/27 05:40:31;;;;;;;2.87;1.97;;;17.70;70.70;;;;;;5010798;28;20468;-44
2022/05/27 05:43:00;;;;;;;1.50;1.40;;;17.70;70.60;;;;;;4996197;28;20555;-44
2022/05/27 05:45:28;;;;;;;1.73;1.63;;;17.70;70.90;;;;;;4996891;28;20448;-44
2022/05/27 05:47:54;;;;;;;1.73;1.63;;;17.80;70.60;;;;;;5011008;28;20888;-44
2022/05/27 05:50:22;;;;;;;1.97;1.70;;;17.80;70.10;;;;;;4994563;28;20498;-44
2022/05/27 05:52:49;;;;;;;2.60;1.37;;;17.90;69.60;;;;;;5013134;28;20535;-45
2022/05/27 05:55:18;;;;;;;2.40;2.10;;;18.00;69.00;;;;;;5012327;28;20448;-45
2022/05/27 05:57:47;;;;;;;3.67;1.70;;;18.00;68.70;;;;;;4995625;28;20470;-45
2022/05/27 06:00:18;;;;;;;2.17;1.57;;;18.10;69.20;;;;;;5012269;28;20474;-44
2022/05/27 06:02:45;;;;;;;3.57;1.70;;;18.10;68.70;;;;;;5010570;28;20480;-45
2022/05/27 06:05:12;;;;;;;2.20;1.47;;;18.10;68.90;;;;;;5012399;28;20883;-45
2022/05/27 06:07:39;;;;;;;1.40;1.30;;;18.10;68.90;;;;;;5013733;28;20978;-45
2022/05/27 06:10:07;;;;;;;2.63;2.17;;;18.10;69.10;;;;;;5011196;28;20490;-45
2022/05/27 06:12:35;;;;;;;3.43;1.57;;;18.10;68.30;;;;;;5012735;28;20486;-45
2022/05/27 06:15:04;;;;;;;1.80;1.70;;;18.10;68.30;;;;;;5013967;28;20444;-45
2022/05/27 06:17:33;;;;;;;2.27;1.70;;;18.10;68.40;;;;;;5009273;28;20467;-45
2022/05/27 06:20:00;;;;;;;1.70;1.50;;;18.00;68.60;;;;;;4993874;28;20468;-45
2022/05/27 06:22:27;;;;;;;1.73;1.53;;;18.00;68.80;;;;;;5011377;28;20958;-44
2022/05/27 06:24:54;;;;;;;7.23;2.00;;;18.00;68.80;;;;;;5011059;28;20523;-45
2022/05/27 06:27:21;;;;;;;2.37;2.00;;;18.00;68.80;;;;;;5012947;28;20851;-44
2022/05/27 06:35:19;;;;;;;4.17;2.10;;;17.90;69.00;;;;;;5015013;28;20451;-43
2022/05/27 06:37:46;;;;;;;2.70;1.67;;;17.80;68.90;;;;;;5013154;28;20539;-43
2022/05/27 06:40:13;;;;;;;2.00;1.90;;;17.80;69.20;;;;;;5009425;28;20464;-43
2022/05/27 06:42:40;;;;;;;5.63;2.50;;;17.80;69.10;;;;;;5011361;28;20444;-43
2022/05/27 06:45:09;;;;;;;2.23;2.03;;;17.80;69.40;;;;;;5010567;28;20803;-43
2022/05/27 06:47:37;;;;;;;3.00;2.00;;;17.80;69.50;;;;;;4989792;28;20460;-43
2022/05/27 06:50:04;;;;;;;5.00;2.00;;;17.70;69.60;;;;;;5015179;28;20587;-43
2022/05/27 06:52:32;;;;;;;3.10;1.87;;;17.80;69.60;;;;;;5013585;28;20502;-43
2022/05/27 06:54:58;;;;;;;2.07;1.40;;;17.80;69.90;;;;;;5009570;28;20548;-44
2022/05/27 06:57:26;;;;;;;1.60;1.50;;;17.80;69.70;;;;;;5010068;28;20858;-43
2022/05/27 06:59:53;;;;;;;4.37;2.10;;;17.80;69.50;;;;;;4992812;28;20466;-45
2022/05/27 07:02:22;;;;;;;1.90;1.43;;;17.80;69.80;;;;;;5010117;28;21037;-46
2022/05/27 07:04:49;;;;;;;2.53;1.87;;;17.80;69.50;;;;;;5011410;28;21057;-46
2022/05/27 07:07:17;;;;;;;1.37;1.13;;;17.80;69.60;;;;;;5011481;28;20462;-46
2022/05/27 07:09:44;;;;;;;1.93;1.73;;;17.80;69.80;;;;;;5011744;28;21007;-45
2022/05/27 07:12:12;;;;;;;2.00;1.10;;;17.80;69.80;;;;;;4993273;28;20456;-45
2022/05/27 07:14:39;;;;;;;3.63;1.47;;;17.80;69.90;;;;;;5009064;28;20605;-44
2022/05/27 07:17:06;;;;;;;2.27;1.83;;;17.80;69.70;;;;;;5011260;28;20444;-44
2022/05/27 07:19:40;;;;;;;2.77;2.07;;;17.70;70.10;;;;;;5010581;28;20445;-44
2022/05/27 07:22:08;;;;;;;2.63;1.60;;;17.80;69.80;;;;;;5006977;28;20459;-45
2022/05/27 07:24:37;;;;;;;3.50;1.80;;;17.80;69.60;;;;;;5005988;28;20475;-45
2022/05/27 07:27:04;;;;;;;3.40;1.37;;;17.80;69.60;;;;;;5004008;28;20457;-45
2022/05/27 07:29:31;;;;;;;2.00;1.63;;;17.80;69.60;;;;;;5008749;28;20478;-45
2022/05/27 07:31:58;;;;;;;1.47;1.37;;;17.80;69.50;;;;;;5009434;28;20472;-46
2022/05/27 07:34:25;;;;;;;2.30;1.87;;;17.80;69.60;;;;;;4992315;28;20619;-45
2022/05/27 07:36:52;;;;;;;4.27;1.60;;;17.80;69.50;;;;;;5011321;28;20543;-45
2022/05/27 07:39:18;;;;;;;1.53;1.43;;;17.90;69.50;;;;;;5010583;28;20540;-45
2022/05/27 07:41:45;;;;;;;3.23;1.63;;;17.90;69.40;;;;;;4991797;28;20452;-45
2022/05/27 07:44:12;;;;;;;2.87;1.90;;;17.90;69.20;;;;;;4990351;28;20464;-45
2022/05/27 07:46:39;;;;;;;3.00;1.60;;;17.90;69.30;;;;;;5003922;28;20614;-45
2022/05/27 07:49:07;;;;;;;1.90;1.70;;;18.00;69.30;;;;;;5007566;28;20547;-45
2022/05/27 07:51:54;;;;;;;2.90;1.80;;;18.00;69.20;;;;;;4995277;28;20498;-45
2022/05/27 07:54:21;;;;;;;2.67;1.30;;;18.00;69.30;;;;;;5009156;28;20479;-45
2022/05/27 07:56:48;;;;;;;1.77;1.60;;;18.10;69.00;;;;;;5010111;28;20544;-45
2022/05/27 07:59:15;;;;;;;1.70;1.43;;;18.00;68.90;;;;;;4992371;28;20972;-46
2022/05/27 08:01:42;;;;;;;1.90;1.73;;;18.10;69.30;;;;;;5009446;28;20448;-46
2022/05/27 08:04:09;;;;;;;3.27;1.37;;;18.10;69.40;;;;;;4990661;28;20444;-46
2022/05/27 08:06:36;;;;;;;2.80;1.30;;;18.10;70.20;;;;;;5008358;28;21000;-46
2022/05/27 08:09:11;;;;;;;3.90;1.40;;;18.10;71.20;;;;;;5009688;28;20950;-46
2022/05/27 08:11:38;;;;;;;1.63;1.40;;;18.20;71.30;;;;;;5009627;28;20929;-46
2022/05/27 08:14:05;;;;;;;1.50;1.30;;;18.20;71.30;;;;;;5008168;28;20464;-46
2022/05/27 08:16:34;;;;;;;2.17;1.10;;;18.20;71.40;;;;;;4991189;28;20441;-46
2022/05/27 08:19:02;;;;;;;1.30;1.20;;;18.20;71.30;;;;;;5008600;28;20543;-46
2022/05/27 08:21:29;;;;;;;1.37;1.20;;;18.30;71.30;;;;;;5007648;28;20543;-45
2022/05/27 08:23:55;;;;;;;3.90;1.43;;;18.50;69.50;;;;;;5009258;28;20539;-45
2022/05/27 08:26:22;;;;;;;2.20;0.93;;;18.50;68.60;;;;;;5004531;28;20502;-45
2022/05/27 08:28:50;;;;;;;2.10;1.00;;;18.60;68.60;;;;;;5009546;28;21030;-46
2022/05/27 08:31:16;;;;;;;0.90;0.80;;;18.60;69.20;;;;;;5008397;28;20520;-45
2022/05/27 08:39:16;;;;;;;1.17;1.07;;;18.80;67.40;;;;;;5007900;28;20456;-45
2022/05/27 08:41:49;;;;;;;2.47;1.03;;;18.80;68.10;;;;;;5007430;28;20471;-45
2022/05/27 08:44:23;;;;;;;0.90;0.90;;;18.80;67.50;;;;;;5008900;28;20455;-44
2022/05/27 08:47:08;;;;;;;1.23;1.13;;;18.80;68.00;;;;;;5009328;28;20506;-45
2022/05/27 08:49:40;;;;;;;4.10;1.20;;;18.80;68.20;;;;;;5008242;28;20471;-45
2022/05/27 08:52:38;;;;;;;1.00;0.60;;;18.90;67.20;;;;;;5008718;28;20502;-45
2022/05/27 09:01:04;;;;;;;3.00;0.80;;;19.00;67.20;;;;;;5004157;28;20467;-45
2022/05/27 09:03:37;;;;;;;1.90;1.07;;;19.00;67.40;;;;;;4989727;28;20460;-44
2022/05/27 09:06:05;;;;;;;3.20;1.00;;;19.00;67.10;;;;;;4973503;28;20988;-44
2022/05/27 09:08:32;;;;;;;2.40;1.07;;;19.00;66.60;;;;;;5005916;28;20507;-45
2022/05/27 09:11:36;;;;;;;0.97;0.87;;;19.00;67.10;;;;;;5010546;28;20520;-44
2022/05/27 09:14:14;;;;;;;2.80;1.37;;;19.00;67.10;;;;;;4989667;28;20470;-44
2022/05/27 09:16:49;;;;;;;1.03;0.97;;;18.90;66.50;;;;;;5007491;28;20444;-45
2022/05/27 09:19:51;;;;;;;4.07;1.57;;;18.90;66.80;;;;;;5008421;28;20444;-45
2022/05/27 09:22:27;;;;;;;1.03;0.93;;;18.90;67.60;;;;;;5006875;28;20555;-45
2022/05/27 09:24:54;;;;;;;1.93;1.30;;;18.90;67.10;;;;;;4990477;28;20890;-45
2022/05/27 09:27:28;;;;;;;1.27;0.97;;;18.90;67.10;;;;;;5007741;28;20468;-45
2022/05/27 09:30:27;;;;;;;1.37;1.10;;;18.90;67.00;;;;;;5008695;28;20535;-45
2022/05/27 09:32:56;;;;;;;1.37;1.00;;;18.90;67.40;;;;;;4992791;28;20484;-45
2022/05/27 09:35:56;;;;;;;3.80;1.30;;;18.90;67.20;;;;;;5009047;28;20459;-45
2022/05/27 09:38:30;;;;;;;1.93;1.33;;;19.00;67.40;;;;;;5007947;28;20448;-45
2022/05/27 09:41:35;;;;;;;3.43;1.20;;;19.10;67.70;;;;;;4989187;28;20502;-45
2022/05/27 09:44:40;;;;;;;1.90;1.00;;;19.20;67.80;;;;;;5009963;28;20454;-45
2022/05/27 09:47:07;;;;;;;2.87;1.20;;;19.20;67.10;;;;;;4988216;28;20519;-45
2022/05/27 09:49:34;;;;;;;1.93;1.40;;;19.20;66.90;;;;;;5010529;28;20452;-44
2022/05/27 09:52:02;;;;;;;1.47;1.37;;;19.30;66.60;;;;;;5008575;28;20491;-45
2022/05/27 09:54:47;;;;;;;3.20;1.00;;;19.40;66.30;;;;;;5006645;28;20978;-45
2022/05/27 09:57:16;;;;;;;1.43;1.33;;;19.40;65.90;;;;;;5008967;28;20474;-45
2022/05/27 09:59:53;;;;;;;2.70;1.23;;;19.40;66.00;;;;;;4995357;28;20495;-45
2022/05/27 10:02:26;;;;;;;1.30;1.00;;;19.40;66.00;;;;;;5011034;28;20571;-44
2022/05/27 10:04:57;;;;;;;1.30;1.10;;;19.40;66.80;;;;;;5014409;28;20490;-45
2022/05/27 10:07:31;;;;;;;1.97;1.10;;;19.40;66.80;;;;;;5010302;28;20843;-45
2022/05/27 10:10:29;;;;;;;1.43;1.20;;;19.40;66.40;;;;;;5009051;28;20546;-45
2022/05/27 10:12:58;;;;;;;1.17;0.93;;;19.40;66.30;;;;;;5008526;28;20448;-45
2022/05/27 10:15:28;;;;;;;0.90;0.90;;;19.40;66.40;;;;;;4993653;28;20458;-45
2022/05/27 10:17:56;;;;;;;2.13;1.03;;;19.40;66.50;;;;;;5013361;28;21033;-44
2022/05/27 10:20:33;;;;;;;1.13;1.03;;;19.40;66.00;;;;;;4992253;28;20440;-45
2022/05/27 10:23:28;;;;;;;0.80;0.80;;;19.40;66.70;;;;;;5009349;28;20567;-45
2022/05/27 10:25:58;;;;;;;1.47;0.60;;;19.40;66.20;;;;;;5009852;28;20452;-45
2022/05/27 10:28:31;;;;;;;0.60;0.50;;;19.30;66.40;;;;;;5012190;28;20451;-44
2022/05/27 10:31:13;;;;;;;0.80;0.80;;;19.30;66.20;;;;;;5010455;28;20488;-45
2022/05/27 10:33:47;;;;;;;1.00;0.50;;;19.30;66.00;;;;;;5010189;28;20535;-46
2022/05/27 10:36:47;;;;;;;0.83;0.53;;;19.30;66.20;;;;;;5010722;28;20872;-45
2022/05/27 10:39:27;;;;;;;1.27;0.60;;;19.30;66.30;;;;;;5010676;28;20452;-45
2022/05/27 10:42:32;;;;;;;0.60;0.53;;;19.40;66.40;;;;;;5011752;28;20850;-45
2022/05/27 10:45:12;;;;;;;1.07;0.80;;;19.50;65.80;;;;;;4992145;28;20458;-45
2022/05/27 10:48:06;;;;;;;0.60;0.50;;;19.60;65.80;;;;;;5011162;28;20451;-44
2022/05/27 10:50:56;;;;;;;0.50;0.40;;;19.60;65.30;;;;;;5009847;28;20506;-44
2022/05/27 10:53:30;;;;;;;0.47;0.40;;;19.60;65.20;;;;;;5009400;28;20471;-45
2022/05/27 10:56:18;;;;;;;0.70;0.50;;;19.50;65.30;;;;;;5012538;28;20456;-45
2022/05/27 11:02:21;;;;;;;1.40;0.70;;;19.60;66.50;;;;;;5012553;28;20460;-45
2022/05/27 11:05:09;;;;;;;0.80;0.60;;;19.70;66.30;;;;;;5003321;28;20960;-45
2022/05/27 11:07:51;;;;;;;0.70;0.50;;;19.90;65.60;;;;;;5009683;28;20970;-45
2022/05/27 11:10:38;;;;;;;1.73;0.67;;;20.00;65.50;;;;;;5009850;28;20458;-45
2022/05/27 11:16:22;;;;;;;0.70;0.70;;;20.20;65.20;;;;;;5009421;28;20463;-45
2022/05/27 11:18:57;;;;;;;1.03;0.40;;;20.30;64.10;;;;;;5011835;28;20444;-45
2022/05/27 11:21:26;;;;;;;0.60;0.50;;;20.40;64.70;;;;;;5006491;28;20464;-45
2022/05/27 11:24:15;;;;;;;0.50;0.50;;;20.50;64.20;;;;;;5010869;28;21054;-44
2022/05/27 11:26:54;;;;;;;1.10;0.50;;;20.60;63.50;;;;;;5008307;28;20452;-45
2022/05/27 11:29:24;;;;;;;0.53;0.47;;;20.50;63.10;;;;;;5010289;28;20606;-45
2022/05/27 11:32:01;;;;;;;0.50;0.47;;;20.50;63.20;;;;;;5013393;28;20492;-45
2022/05/27 11:34:42;;;;;;;0.50;0.40;;;20.50;62.80;;;;;;5008784;28;20569;-45
2022/05/27 11:37:25;;;;;;;0.50;0.30;;;20.40;62.50;;;;;;5009391;28;20613;-45
2022/05/27 11:40:16;;;;;;;1.23;0.40;;;20.30;63.90;;;;;;5007250;28;20475;-45
2022/05/27 11:43:07;;;;;;;1.10;0.43;;;20.20;64.00;;;;;;5008502;28;20482;-45
2022/05/27 11:45:35;;;;;;;0.50;0.40;;;20.20;63.80;;;;;;5010220;28;20456;-44
2022/05/27 11:48:20;;;;;;;0.43;0.40;;;20.20;64.10;;;;;;5006146;28;20479;-44
2022/05/27 11:51:20;;;;;;;0.43;0.40;;;20.10;64.40;;;;;;5008778;28;21092;-44
2022/05/27 11:54:16;;;;;;;1.63;0.63;;;20.10;64.10;;;;;;5008841;28;20797;-45
2022/05/27 11:57:01;;;;;;;1.17;0.40;;;20.10;64.10;;;;;;5009612;28;20514;-45
2022/05/27 11:59:42;;;;;;;0.60;0.30;;;20.00;63.80;;;;;;4991146;28;20460;-45
2022/05/27 12:02:25;;;;;;;2.33;0.70;;;20.00;65.60;;;;;;5008791;28;20461;-45
2022/05/27 12:05:31;;;;;;;0.50;0.50;;;19.80;67.30;;;;;;5009492;28;20472;-45
2022/05/27 12:08:35;;;;;;;0.60;0.50;;;19.60;69.60;;;;;;4998977;28;20499;-45
2022/05/27 12:11:13;;;;;;;1.60;0.60;;;19.50;72.00;;;;;;5009493;28;21000;-45
2022/05/27 12:13:54;;;;;;;1.27;0.50;;;19.40;72.60;;;;;;5009400;28;20555;-45
2022/05/27 12:16:27;;;;;;;1.00;0.50;;;19.30;72.90;;;;;;5009143;28;20440;-45
2022/05/27 12:19:14;;;;;;;0.93;0.50;;;19.20;72.70;;;;;;5007565;28;20504;-44
2022/05/27 12:21:46;;;;;;;0.83;0.83;;;19.10;72.90;;;;;;5008076;28;20463;-45
2022/05/27 12:24:24;;;;;;;1.10;0.80;;;19.20;72.70;;;;;;5007539;28;20829;-45
2022/05/27 12:26:53;;;;;;;1.00;0.70;;;19.30;72.60;;;;;;5007631;28;20458;-45
2022/05/27 12:29:22;;;;;;;1.80;0.77;;;19.30;71.90;;;;;;5009685;28;20814;-45
2022/05/27 12:31:53;;;;;;;1.00;0.80;;;19.30;72.10;;;;;;5008626;28;20492;-44
2022/05/27 12:34:44;;;;;;;0.90;0.90;;;19.30;72.10;;;;;;5007502;28;20816;-45
2022/05/27 12:37:17;;;;;;;0.70;0.70;;;19.40;71.60;;;;;;5008027;28;20842;-45
2022/05/27 12:39:46;;;;;;;1.00;0.90;;;19.40;70.50;;;;;;5007632;28;20464;-45
2022/05/27 12:42:16;;;;;;;0.80;0.70;;;19.40;68.30;;;;;;4989917;28;20464;-45
2022/05/27 12:44:44;;;;;;;2.00;1.20;;;19.40;68.30;;;;;;5009366;28;20451;-45
2022/05/27 12:47:34;;;;;;;1.57;1.23;;;19.40;67.60;;;;;;4995926;28;20449;-45
2022/05/27 12:50:21;;;;;;;2.10;1.67;;;19.30;67.80;;;;;;5005403;28;20471;-45
2022/05/27 12:52:48;;;;;;;1.40;1.20;;;19.20;67.40;;;;;;4978603;28;20484;-44
2022/05/27 12:55:37;;;;;;;1.57;1.40;;;19.10;67.40;;;;;;5009123;28;21030;-44
2022/05/27 13:01:01;;;;;;;1.80;1.70;;;18.80;69.30;;;;;;5006693;28;20460;-44
2022/05/27 13:03:30;;;;;;;1.97;1.77;;;18.70;71.30;;;;;;4991577;28;20486;-44
2022/05/27 13:06:03;;;;;;;2.00;1.80;;;18.60;71.90;;;;;;5009459;28;20507;-45
2022/05/27 13:09:10;;;;;;;2.50;2.00;;;18.60;73.10;;;;;;4990388;28;20870;-45
2022/05/27 13:11:41;;;;;;;4.07;2.00;;;18.60;74.00;;;;;;4925938;29;20527;-45
2022/05/27 13:14:40;;;;;;;2.10;1.90;;;18.70;74.00;;;;;;4999344;28;20440;-45
2022/05/27 13:17:23;;;;;;;5.30;2.07;;;18.80;72.40;;;;;;5008824;28;20468;-45
2022/05/27 13:19:59;;;;;;;2.93;1.93;;;19.00;71.50;;;;;;5008356;28;20487;-44
2022/05/27 13:22:51;;;;;;;2.13;1.93;;;19.00;71.40;;;;;;4990547;28;20458;-44
2022/05/27 13:25:29;;;;;;;2.30;1.80;;;19.10;71.20;;;;;;5005699;28;20453;-46
2022/05/27 13:28:05;;;;;;;2.93;2.70;;;19.20;70.30;;;;;;5008900;28;20444;-44
2022/05/27 13:30:56;;;;;;;1.70;1.60;;;19.20;70.80;;;;;;5008510;28;21033;-44
2022/05/27 13:33:29;;;;;;;1.70;1.30;;;19.30;70.40;;;;;;5009454;28;20514;-46
2022/05/27 13:35:56;;;;;;;1.60;1.50;;;19.40;71.00;;;;;;5009252;28;20531;-46
2022/05/27 13:38:33;;;;;;;6.70;1.50;;;19.50;70.80;;;;;;4994838;28;20965;-45
2022/05/27 13:41:01;;;;;;;2.00;1.80;;;19.60;69.70;;;;;;5011777;28;20440;-46
2022/05/27 13:43:39;;;;;;;2.50;1.20;;;19.70;68.50;;;;;;5011586;28;20460;-45
2022/05/27 13:46:22;;;;;;;2.13;1.50;;;19.70;69.40;;;;;;5011473;28;20460;-45
2022/05/27 13:48:55;;;;;;;1.90;1.80;;;19.80;69.60;;;;;;5010351;28;20454;-45
2022/05/27 13:51:24;;;;;;;2.50;2.30;;;19.80;68.10;;;;;;4994410;28;20444;-45
2022/05/27 13:53:53;;;;;;;1.80;1.30;;;19.90;69.10;;;;;;5011645;28;20452;-44
2022/05/27 13:56:29;;;;;;;1.90;1.70;;;20.00;69.40;;;;;;5013388;28;20458;-45
2022/05/27 13:59:01;;;;;;;2.03;1.90;;;20.00;67.70;;;;;;5015524;28;20463;-45